Time;durP1;ratioP1;P1;durP2;ratioP2;P2;SDS_P1;SDS_P2;PMS_P1;PMS_P2;Temp;Humidity;BMP_temperature;BMP_pressure;BME280_temperature;BME280_humidity;BME280_pressure;Samples;Min_cycle;Max_cycle;Signal;HPM_P1;HPM_P2
2023/04/05 00:00:33;;;;;;;6.82;2.15;;;;;;;;;;5046408;28;20099;-74
2023/04/05 00:03:00;;;;;;;6.15;1.83;;;;;;;;;;5045004;28;20036;-73
2023/04/05 00:05:30;;;;;;;8.73;2.88;;;;;;;;;;5045907;28;20021;-74
2023/04/05 00:07:58;;;;;;;5.97;3.00;;;;;;;;;;5046325;28;20133;-75
2023/04/05 00:10:24;;;;;;;7.53;1.67;;;;;;;;;;5028072;28;20048;-74
2023/04/05 00:12:50;;;;;;;5.97;2.35;;;;;;;;;;5046580;28;20017;-74
2023/04/05 00:15:17;;;;;;;8.40;2.08;;;;;;;;;;5045793;28;20124;-73
2023/04/05 00:17:43;;;;;;;3.22;1.60;;;;;;;;;;5045611;28;20045;-74
2023/04/05 00:20:10;;;;;;;3.65;1.60;;;;;;;;;;5046100;28;20123;-74
2023/04/05 00:22:37;;;;;;;8.77;2.00;;;;;;;;;;5044395;28;20033;-74
2023/04/05 00:25:06;;;;;;;7.57;1.98;;;;;;;;;;5044657;28;20020;-73
2023/04/05 00:27:32;;;;;;;6.68;2.00;;;;;;;;;;5044871;28;20039;-74
2023/04/05 00:29:58;;;;;;;13.20;2.28;;;;;;;;;;5045112;28;20107;-74
2023/04/05 00:32:24;;;;;;;4.15;1.70;;;;;;;;;;5043274;28;20113;-74
2023/04/05 00:34:50;;;;;;;3.25;1.70;;;;;;;;;;5053096;28;20104;-74
2023/04/05 00:37:17;;;;;;;5.35;1.77;;;;;;;;;;5045038;28;20040;-74
2023/04/05 00:39:43;;;;;;;5.97;1.90;;;;;;;;;;5045269;28;20108;-74
2023/04/05 00:42:09;;;;;;;4.72;1.52;;;;;;;;;;5051529;28;20048;-74
2023/04/05 00:44:35;;;;;;;5.72;1.98;;;;;;;;;;5045270;28;20528;-74
2023/04/05 00:47:03;;;;;;;4.22;1.63;;;;;;;;;;5044706;28;20525;-74
2023/04/05 00:49:33;;;;;;;7.03;1.88;;;;;;;;;;5050790;28;20123;-73
2023/04/05 00:51:59;;;;;;;6.10;1.77;;;;;;;;;;5037599;28;20024;-74
2023/04/05 00:54:28;;;;;;;6.78;2.22;;;;;;;;;;5045488;28;20071;-74
2023/04/05 00:57:00;;;;;;;4.22;2.03;;;;;;;;;;5052227;28;20048;-74
2023/04/05 00:59:30;;;;;;;4.38;2.08;;;;;;;;;;5043870;28;20052;-74
2023/04/05 01:02:08;;;;;;;8.68;1.80;;;;;;;;;;5053230;28;20041;-74
2023/04/05 01:04:35;;;;;;;4.85;2.28;;;;;;;;;;5052492;28;20017;-74
2023/04/05 01:07:09;;;;;;;7.97;1.98;;;;;;;;;;5044972;28;20021;-74
2023/04/05 01:09:35;;;;;;;2.97;1.60;;;;;;;;;;5043696;28;20063;-74
2023/04/05 01:12:05;;;;;;;15.30;2.65;;;;;;;;;;5052252;28;20703;-74
2023/04/05 01:14:31;;;;;;;6.75;1.67;;;;;;;;;;5044640;28;20025;-74
2023/04/05 01:16:57;;;;;;;5.38;1.52;;;;;;;;;;5051314;28;20752;-74
2023/04/05 01:19:28;;;;;;;6.93;1.60;;;;;;;;;;5044342;28;20393;-74
2023/04/05 01:22:12;;;;;;;3.78;1.48;;;;;;;;;;5044534;28;20035;-74
2023/04/05 01:24:38;;;;;;;3.58;1.45;;;;;;;;;;5044772;28;20033;-74
2023/04/05 01:27:14;;;;;;;3.08;1.42;;;;;;;;;;5050443;28;20136;-74
2023/04/05 01:29:40;;;;;;;3.72;1.63;;;;;;;;;;5044606;28;20111;-74
2023/04/05 01:32:07;;;;;;;3.40;1.10;;;;;;;;;;5042922;28;20021;-74
2023/04/05 01:34:51;;;;;;;2.88;1.15;;;;;;;;;;5045060;28;20070;-74
2023/04/05 01:37:20;;;;;;;2.53;1.20;;;;;;;;;;5042594;28;20037;-74
2023/04/05 01:39:47;;;;;;;3.55;1.17;;;;;;;;;;5042764;28;20579;-74
2023/04/05 01:42:13;;;;;;;1.10;0.90;;;;;;;;;;5044508;28;20059;-73
2023/04/05 01:44:39;;;;;;;3.22;1.27;;;;;;;;;;5044215;28;20053;-74
2023/04/05 01:47:05;;;;;;;1.52;0.88;;;;;;;;;;5047444;28;20028;-73
2023/04/05 01:49:31;;;;;;;2.28;0.82;;;;;;;;;;5047562;28;20033;-74
2023/04/05 01:51:58;;;;;;;3.22;1.77;;;;;;;;;;5044076;28;20174;-73
2023/04/05 01:54:24;;;;;;;2.67;1.10;;;;;;;;;;5049034;28;20828;-74
2023/04/05 01:56:50;;;;;;;2.63;1.20;;;;;;;;;;5045351;28;20037;-74
2023/04/05 01:59:16;;;;;;;1.98;1.17;;;;;;;;;;5051830;28;20104;-74
2023/04/05 02:01:42;;;;;;;2.63;0.95;;;;;;;;;;5044491;28;20037;-74
2023/04/05 02:04:09;;;;;;;6.88;1.20;;;;;;;;;;5051280;28;20096;-74
2023/04/05 02:06:35;;;;;;;1.45;0.90;;;;;;;;;;5042600;28;20424;-75
2023/04/05 02:09:01;;;;;;;1.40;0.90;;;;;;;;;;5050979;28;20082;-74
2023/04/05 02:11:27;;;;;;;3.72;1.02;;;;;;;;;;5042851;28;20112;-74
2023/04/05 02:13:53;;;;;;;4.07;1.10;;;;;;;;;;5044036;28;20109;-74
2023/04/05 02:16:19;;;;;;;4.47;1.20;;;;;;;;;;5043907;28;20033;-74
2023/04/05 02:18:49;;;;;;;3.42;1.20;;;;;;;;;;5042136;28;20989;-74
2023/04/05 02:21:16;;;;;;;3.35;1.20;;;;;;;;;;5044076;28;20036;-75
2023/04/05 02:23:42;;;;;;;4.60;1.42;;;;;;;;;;5044029;28;20078;-74
2023/04/05 02:26:09;;;;;;;6.18;1.40;;;;;;;;;;5035579;28;20017;-74
2023/04/05 02:28:35;;;;;;;2.80;1.30;;;;;;;;;;5043283;28;20036;-74
2023/04/05 02:31:01;;;;;;;2.30;1.05;;;;;;;;;;5042066;28;21019;-73
2023/04/05 02:33:28;;;;;;;2.50;1.20;;;;;;;;;;5057317;28;20154;-74
2023/04/05 02:35:55;;;;;;;2.75;1.45;;;;;;;;;;5043289;28;20400;-74
2023/04/05 02:38:22;;;;;;;9.20;1.30;;;;;;;;;;5044224;28;20029;-74
2023/04/05 02:40:48;;;;;;;4.45;1.20;;;;;;;;;;5043637;28;20042;-74
2023/04/05 02:43:15;;;;;;;3.38;1.23;;;;;;;;;;5042092;28;20115;-75
2023/04/05 02:45:41;;;;;;;2.78;1.08;;;;;;;;;;5044093;28;20033;-75
2023/04/05 02:48:07;;;;;;;1.98;1.00;;;;;;;;;;5050395;28;20052;-75
2023/04/05 02:50:33;;;;;;;2.90;1.13;;;;;;;;;;5050081;28;20031;-75
2023/04/05 02:53:00;;;;;;;4.75;1.02;;;;;;;;;;5043592;28;20028;-73
2023/04/05 02:55:28;;;;;;;2.38;1.40;;;;;;;;;;5049708;28;20139;-76
2023/04/05 02:57:59;;;;;;;3.20;1.40;;;;;;;;;;5048519;28;20100;-75
2023/04/05 03:00:26;;;;;;;3.63;1.47;;;;;;;;;;5042766;28;20149;-75
2023/04/05 03:02:53;;;;;;;4.82;1.10;;;;;;;;;;5042170;28;20583;-75
2023/04/05 03:05:19;;;;;;;3.75;1.70;;;;;;;;;;5043715;28;20025;-76
2023/04/05 03:07:49;;;;;;;6.35;1.23;;;;;;;;;;5041641;28;20062;-75
2023/04/05 03:10:17;;;;;;;3.60;1.10;;;;;;;;;;5035619;28;20032;-77
2023/04/05 03:12:45;;;;;;;3.53;1.40;;;;;;;;;;5044078;28;20094;-76
2023/04/05 03:15:11;;;;;;;3.22;1.40;;;;;;;;;;5043246;28;20032;-75
2023/04/05 03:17:37;;;;;;;3.97;1.60;;;;;;;;;;5038121;28;20041;-76
2023/04/05 03:20:06;;;;;;;2.75;1.45;;;;;;;;;;5042834;28;20029;-75
2023/04/05 03:22:32;;;;;;;4.70;1.60;;;;;;;;;;5044903;28;20045;-75
2023/04/05 03:24:58;;;;;;;3.67;1.42;;;;;;;;;;5044257;28;20055;-75
2023/04/05 03:27:26;;;;;;;3.28;1.40;;;;;;;;;;5043554;28;20141;-75
2023/04/05 03:29:52;;;;;;;3.92;1.48;;;;;;;;;;5042829;28;20025;-74
2023/04/05 03:32:18;;;;;;;5.32;1.48;;;;;;;;;;5042474;28;20107;-75
2023/04/05 03:34:44;;;;;;;2.58;1.42;;;;;;;;;;5044775;28;20603;-75
2023/04/05 03:37:10;;;;;;;4.63;1.67;;;;;;;;;;5044521;28;20068;-75
2023/04/05 03:39:36;;;;;;;5.05;1.88;;;;;;;;;;5043903;28;20112;-75
2023/04/05 03:42:03;;;;;;;3.97;1.48;;;;;;;;;;5044461;28;20116;-75
2023/04/05 03:44:29;;;;;;;3.47;1.42;;;;;;;;;;5039542;28;20159;-75
2023/04/05 03:46:55;;;;;;;5.10;1.83;;;;;;;;;;5045175;28;20024;-74
2023/04/05 03:49:22;;;;;;;7.25;1.77;;;;;;;;;;5044106;28;20028;-75
2023/04/05 03:51:48;;;;;;;5.90;1.50;;;;;;;;;;5044367;28;20557;-76
2023/04/05 03:54:15;;;;;;;5.63;2.35;;;;;;;;;;5042024;28;20068;-74
2023/04/05 03:56:41;;;;;;;8.00;1.92;;;;;;;;;;5049730;28;20465;-74
2023/04/05 03:59:07;;;;;;;3.78;1.42;;;;;;;;;;5046847;28;20021;-74
2023/04/05 04:01:33;;;;;;;3.72;1.70;;;;;;;;;;5050382;28;20038;-75
2023/04/05 04:04:00;;;;;;;8.63;1.88;;;;;;;;;;5042109;28;20025;-75
2023/04/05 04:06:26;;;;;;;6.90;1.80;;;;;;;;;;5042307;28;20025;-75
2023/04/05 04:08:52;;;;;;;5.13;1.88;;;;;;;;;;5046353;28;20119;-75
2023/04/05 04:11:18;;;;;;;5.15;1.77;;;;;;;;;;5043729;28;20116;-74
2023/04/05 04:13:45;;;;;;;9.75;2.00;;;;;;;;;;5041962;28;20359;-75
2023/04/05 04:16:11;;;;;;;5.63;1.95;;;;;;;;;;5042100;28;20025;-75
2023/04/05 04:18:37;;;;;;;6.15;1.60;;;;;;;;;;5043219;28;20037;-75
2023/04/05 04:21:05;;;;;;;7.25;1.77;;;;;;;;;;5041117;28;20025;-75
2023/04/05 04:23:33;;;;;;;6.85;2.85;;;;;;;;;;5043441;28;20035;-76
2023/04/05 04:26:00;;;;;;;9.55;2.10;;;;;;;;;;5042073;28;20013;-75
2023/04/05 04:28:27;;;;;;;7.65;2.05;;;;;;;;;;5041759;28;20040;-76
2023/04/05 04:30:53;;;;;;;4.70;1.90;;;;;;;;;;5040313;28;20510;-75
2023/04/05 04:33:19;;;;;;;9.65;1.70;;;;;;;;;;5043019;28;20860;-76
2023/04/05 04:35:45;;;;;;;5.82;1.65;;;;;;;;;;5042258;28;20025;-74
2023/04/05 04:38:17;;;;;;;7.70;1.83;;;;;;;;;;5042471;28;20029;-75
2023/04/05 04:40:49;;;;;;;3.35;1.05;;;;;;;;;;5042721;28;20028;-74
2023/04/05 04:43:26;;;;;;;;;;;;;;;;;;5043790;28;20037;-75
2023/04/05 04:45:53;;;;;;;2.72;1.10;;;;;;;;;;5047599;28;20003;-75
2023/04/05 04:48:20;;;;;;;4.65;1.10;;;;;;;;;;5041020;28;20037;-74
2023/04/05 04:50:48;;;;;;;6.38;2.40;;;;;;;;;;5042968;28;20112;-74
2023/04/05 04:53:17;;;;;;;5.63;0.60;;;;;;;;;;5043028;28;20036;-76
2023/04/05 04:55:44;;;;;;;3.17;0.65;;;;;;;;;;5041402;28;20360;-77
2023/04/05 04:58:11;;;;;;;3.20;0.70;;;;;;;;;;5042637;28;20083;-76
2023/04/05 05:00:42;;;;;;;0.85;0.45;;;;;;;;;;5049676;28;20109;-75
2023/04/05 05:03:10;;;;;;;3.17;0.55;;;;;;;;;;5042660;28;20655;-75
2023/04/05 05:05:41;;;;;;;0.82;0.60;;;;;;;;;;5048336;28;20033;-76
2023/04/05 05:08:07;;;;;;;4.53;0.65;;;;;;;;;;5046891;28;20772;-76
2023/04/05 05:10:33;;;;;;;2.45;0.75;;;;;;;;;;5047976;28;20021;-75
2023/04/05 05:13:00;;;;;;;2.70;0.63;;;;;;;;;;5053009;28;20543;-74
2023/04/05 05:15:26;;;;;;;4.13;0.85;;;;;;;;;;5047771;28;20150;-75
2023/04/05 05:17:54;;;;;;;2.28;0.52;;;;;;;;;;5052242;28;20127;-75
2023/04/05 05:20:21;;;;;;;2.65;0.75;;;;;;;;;;5047521;28;20036;-76
2023/04/05 05:22:47;;;;;;;6.57;1.00;;;;;;;;;;5048605;28;20064;-75
2023/04/05 05:25:13;;;;;;;4.78;0.80;;;;;;;;;;5046971;28;20027;-74
2023/04/05 05:27:40;;;;;;;4.25;0.70;;;;;;;;;;5049685;28;20040;-74
2023/04/05 05:30:07;;;;;;;3.30;0.63;;;;;;;;;;5047193;28;20650;-74
2023/04/05 05:32:34;;;;;;;4.10;0.80;;;;;;;;;;5047098;28;20102;-74
2023/04/05 05:35:00;;;;;;;1.10;0.63;;;;;;;;;;5049578;28;20759;-75
2023/04/05 05:37:30;;;;;;;1.75;0.57;;;;;;;;;;5048053;28;20051;-75
2023/04/05 05:39:57;;;;;;;3.60;0.70;;;;;;;;;;5049047;28;20024;-74
2023/04/05 05:42:23;;;;;;;2.80;0.60;;;;;;;;;;5046768;28;20032;-75
2023/04/05 05:44:49;;;;;;;1.90;0.52;;;;;;;;;;5046858;28;20063;-75
2023/04/05 05:47:15;;;;;;;2.67;0.50;;;;;;;;;;5047683;28;20025;-74
2023/04/05 05:49:41;;;;;;;5.97;0.70;;;;;;;;;;5048910;28;20108;-74
2023/04/05 05:52:07;;;;;;;3.35;0.52;;;;;;;;;;5047581;28;20892;-73
2023/04/05 05:54:34;;;;;;;2.30;0.30;;;;;;;;;;5045462;28;20036;-74
2023/04/05 05:57:01;;;;;;;1.42;0.77;;;;;;;;;;5049499;28;20552;-75
2023/04/05 05:59:27;;;;;;;4.72;0.75;;;;;;;;;;5048038;28;20530;-75
2023/04/05 06:01:54;;;;;;;2.60;0.57;;;;;;;;;;5047981;28;20033;-74
2023/04/05 06:04:20;;;;;;;3.45;0.63;;;;;;;;;;5046816;28;20113;-75
2023/04/05 06:06:47;;;;;;;1.02;0.40;;;;;;;;;;5044501;28;20444;-75
2023/04/05 06:09:14;;;;;;;0.63;0.28;;;;;;;;;;5049314;28;20044;-75
2023/04/05 06:11:41;;;;;;;1.25;0.25;;;;;;;;;;5046867;28;20021;-74
2023/04/05 06:14:07;;;;;;;0.17;0.10;;;;;;;;;;5049409;28;20089;-75
2023/04/05 06:16:34;;;;;;;0.93;0.40;;;;;;;;;;5047382;28;20025;-75
2023/04/05 06:19:00;;;;;;;1.60;0.10;;;;;;;;;;5049846;28;20073;-75
2023/04/05 06:21:27;;;;;;;0.43;0.10;;;;;;;;;;5045280;28;20025;-76
2023/04/05 06:23:53;;;;;;;1.00;0.13;;;;;;;;;;5049346;28;20028;-75
2023/04/05 06:26:21;;;;;;;0.40;0.10;;;;;;;;;;5046686;28;20530;-77
2023/04/05 06:28:48;;;;;;;2.00;0.20;;;;;;;;;;5042100;28;20045;-75
2023/04/05 06:31:15;;;;;;;0.13;0.05;;;;;;;;;;5047865;28;20033;-75
2023/04/05 06:33:41;;;;;;;0.10;0.10;;;;;;;;;;5049514;28;20049;-75
2023/04/05 06:36:08;;;;;;;0.20;0.10;;;;;;;;;;5049293;28;20048;-74
2023/04/05 06:38:35;;;;;;;0.10;0.03;;;;;;;;;;5044619;28;20048;-75
2023/04/05 06:41:01;;;;;;;0.10;0.10;;;;;;;;;;5048830;28;20025;-74
2023/04/05 06:43:27;;;;;;;0.52;0.10;;;;;;;;;;5044361;28;20124;-74
2023/04/05 06:45:56;;;;;;;0.10;0.10;;;;;;;;;;5046779;28;20021;-74
2023/04/05 06:48:23;;;;;;;0.20;0.20;;;;;;;;;;5048760;28;20039;-74
2023/04/05 06:50:59;;;;;;;2.10;0.20;;;;;;;;;;5047248;28;20140;-74
2023/04/05 06:53:26;;;;;;;0.40;0.32;;;;;;;;;;5051244;28;20108;-75
2023/04/05 06:55:53;;;;;;;0.55;0.20;;;;;;;;;;5055939;28;20049;-77
2023/04/05 06:58:20;;;;;;;0.43;0.15;;;;;;;;;;5054052;28;20028;-74
2023/04/05 07:00:46;;;;;;;2.05;0.55;;;;;;;;;;5059149;28;20048;-76
2023/04/05 07:03:12;;;;;;;0.57;0.20;;;;;;;;;;5054875;28;20111;-74
2023/04/05 07:05:38;;;;;;;1.70;1.30;;;;;;;;;;5035687;28;20608;-74
2023/04/05 07:08:04;;;;;;;4.28;1.30;;;;;;;;;;5052674;28;20146;-74
2023/04/05 07:10:31;;;;;;;2.65;1.08;;;;;;;;;;5050724;28;20017;-73
2023/04/05 07:12:57;;;;;;;4.40;1.05;;;;;;;;;;5045507;28;20111;-75
2023/04/05 07:15:23;;;;;;;2.88;1.00;;;;;;;;;;5045476;28;20036;-77
2023/04/05 07:17:50;;;;;;;1.25;0.90;;;;;;;;;;5036552;28;20037;-77
2023/04/05 07:20:16;;;;;;;0.68;0.63;;;;;;;;;;5024729;28;20044;-77
2023/04/05 07:22:42;;;;;;;3.13;1.08;;;;;;;;;;5026682;28;20523;-78
2023/04/05 07:25:09;;;;;;;1.38;0.90;;;;;;;;;;5024689;28;20272;-79
2023/04/05 07:27:35;;;;;;;1.95;1.02;;;;;;;;;;5025670;28;20022;-78
2023/04/05 07:30:02;;;;;;;2.45;0.80;;;;;;;;;;5023554;28;20057;-77
2023/04/05 07:32:28;;;;;;;1.98;0.70;;;;;;;;;;5024122;28;20106;-77
2023/04/05 07:34:55;;;;;;;1.70;0.95;;;;;;;;;;5025946;28;20025;-77
2023/04/05 07:37:21;;;;;;;3.95;0.95;;;;;;;;;;5023058;28;20694;-77
2023/04/05 07:39:48;;;;;;;2.35;0.77;;;;;;;;;;5026348;28;20069;-77
2023/04/05 07:42:16;;;;;;;3.25;1.00;;;;;;;;;;5023831;28;20033;-78
2023/04/05 07:44:42;;;;;;;1.85;0.98;;;;;;;;;;5027244;28;20025;-79
2023/04/05 07:47:09;;;;;;;4.22;0.70;;;;;;;;;;5025426;28;20029;-78
2023/04/05 07:49:36;;;;;;;1.48;0.63;;;;;;;;;;5027461;28;20021;-79
2023/04/05 07:52:03;;;;;;;2.08;1.10;;;;;;;;;;5024486;28;20037;-77
2023/04/05 07:54:32;;;;;;;3.45;0.80;;;;;;;;;;5024001;28;20038;-79
2023/04/05 07:56:59;;;;;;;5.82;1.42;;;;;;;;;;5025590;28;20055;-79
2023/04/05 07:59:26;;;;;;;2.80;1.00;;;;;;;;;;5026842;28;20025;-78
2023/04/05 08:01:55;;;;;;;7.75;1.10;;;;;;;;;;5026620;28;20033;-77
2023/04/05 08:04:25;;;;;;;3.92;1.10;;;;;;;;;;5024520;28;20512;-78
2023/04/05 08:06:51;;;;;;;4.88;1.08;;;;;;;;;;5026946;28;20056;-79
2023/04/05 08:09:17;;;;;;;2.88;0.82;;;;;;;;;;5023785;28;20079;-79
2023/04/05 08:11:44;;;;;;;5.40;1.20;;;;;;;;;;5023485;28;20033;-78
2023/04/05 08:14:13;;;;;;;7.97;1.42;;;;;;;;;;5027086;28;20040;-79
2023/04/05 08:16:39;;;;;;;4.57;1.20;;;;;;;;;;5029514;28;20056;-77
2023/04/05 08:19:05;;;;;;;4.97;0.95;;;;;;;;;;5047157;28;20087;-80
2023/04/05 08:21:31;;;;;;;9.93;2.28;;;;;;;;;;5046848;28;20035;-78
2023/04/05 08:24:10;;;;;;;;;;;;;;;;;;;;;
2023/04/05 08:26:37;;;;;;;2.80;1.02;;;;;;;;;;5050380;28;20023;-78
2023/04/05 08:29:03;;;;;;;4.30;1.08;;;;;;;;;;5043596;28;20056;-78
2023/04/05 08:31:32;;;;;;;5.03;1.27;;;;;;;;;;5055102;28;20025;-78
2023/04/05 08:33:59;;;;;;;4.25;1.10;;;;;;;;;;5049182;28;20028;-78
2023/04/05 08:36:25;;;;;;;2.90;1.02;;;;;;;;;;5054217;28;20028;-77
2023/04/05 08:38:51;;;;;;;3.67;1.10;;;;;;;;;;5045201;28;20029;-78
2023/04/05 08:41:19;;;;;;;3.40;0.85;;;;;;;;;;5048554;28;20031;-77
2023/04/05 08:44:01;;;;;;;3.53;1.27;;;;;;;;;;5047204;28;20181;-78
2023/04/05 08:46:30;;;;;;;3.33;0.90;;;;;;;;;;5040960;28;20024;-78
2023/04/05 08:48:57;;;;;;;2.67;0.90;;;;;;;;;;5046397;28;20059;-78
2023/04/05 08:51:25;;;;;;;5.47;0.93;;;;;;;;;;5041390;28;20032;-77
2023/04/05 08:53:51;;;;;;;1.58;0.85;;;;;;;;;;5042831;28;20029;-78
2023/04/05 08:56:25;;;;;;;5.22;1.55;;;;;;;;;;5041616;28;20108;-78
2023/04/05 08:59:04;;;;;;;4.03;1.17;;;;;;;;;;5041151;28;20070;-78
2023/04/05 09:01:31;;;;;;;4.80;1.00;;;;;;;;;;5041305;28;20025;-78
2023/04/05 09:04:02;;;;;;;3.65;1.10;;;;;;;;;;5040695;28;20039;-78
2023/04/05 09:06:28;;;;;;;4.97;1.20;;;;;;;;;;5041507;28;20575;-77
2023/04/05 09:08:57;;;;;;;3.72;1.00;;;;;;;;;;5040520;28;20025;-78
2023/04/05 09:11:23;;;;;;;5.13;1.10;;;;;;;;;;5038465;28;20074;-78
2023/04/05 09:13:50;;;;;;;2.17;0.80;;;;;;;;;;5039709;28;20086;-78
2023/04/05 09:16:19;;;;;;;1.00;0.60;;;;;;;;;;5040278;28;20021;-79
2023/04/05 09:18:48;;;;;;;6.72;1.10;;;;;;;;;;5039871;28;20068;-78
2023/04/05 09:21:16;;;;;;;6.82;1.58;;;;;;;;;;5039990;28;20087;-79
2023/04/05 09:23:51;;;;;;;2.70;0.80;;;;;;;;;;5041114;28;20036;-77
2023/04/05 09:26:20;;;;;;;4.97;0.90;;;;;;;;;;5040888;28;20029;-77
2023/04/05 09:28:47;;;;;;;2.38;0.80;;;;;;;;;;5041557;28;20331;-78
2023/04/05 09:31:36;;;;;;;3.97;0.95;;;;;;;;;;5040325;28;20104;-78
2023/04/05 09:34:03;;;;;;;4.95;1.02;;;;;;;;;;5033362;28;20139;-79
2023/04/05 09:36:31;;;;;;;5.45;1.05;;;;;;;;;;5042046;28;20079;-79
2023/04/05 09:39:07;;;;;;;2.20;0.57;;;;;;;;;;5040713;28;20075;-78
2023/04/05 09:41:36;;;;;;;2.88;0.55;;;;;;;;;;5040133;28;20449;-78
2023/04/05 09:44:02;;;;;;;1.73;0.63;;;;;;;;;;5041993;28;20021;-79
2023/04/05 09:46:37;;;;;;;2.42;0.55;;;;;;;;;;5041859;28;20477;-79
2023/04/05 09:49:05;;;;;;;2.47;0.47;;;;;;;;;;5038902;28;20024;-79
2023/04/05 09:51:38;;;;;;;1.85;0.70;;;;;;;;;;5034657;28;20025;-79
2023/04/05 09:54:08;;;;;;;3.13;0.70;;;;;;;;;;5039002;28;20102;-78
2023/04/05 09:56:35;;;;;;;3.60;0.70;;;;;;;;;;5040022;28;20377;-78
2023/04/05 09:59:11;;;;;;;2.83;0.70;;;;;;;;;;5041054;28;20106;-78
2023/04/05 10:01:38;;;;;;;1.88;0.70;;;;;;;;;;5040584;28;20032;-79
2023/04/05 10:04:05;;;;;;;3.70;1.05;;;;;;;;;;5039314;28;20032;-78
2023/04/05 10:06:36;;;;;;;3.63;0.80;;;;;;;;;;5039764;28;20052;-77
2023/04/05 10:09:03;;;;;;;3.40;0.77;;;;;;;;;;5038741;28;20120;-78
2023/04/05 10:11:30;;;;;;;4.85;0.80;;;;;;;;;;5039939;28;20028;-78
2023/04/05 10:13:57;;;;;;;2.55;0.50;;;;;;;;;;5040656;28;20029;-78
2023/04/05 10:16:25;;;;;;;2.17;0.50;;;;;;;;;;5038579;28;20108;-78
2023/04/05 10:18:52;;;;;;;3.63;0.70;;;;;;;;;;5034897;28;20045;-79
2023/04/05 10:21:22;;;;;;;4.68;0.60;;;;;;;;;;5034568;28;20036;-78
2023/04/05 10:23:55;;;;;;;1.63;0.55;;;;;;;;;;5040934;28;20032;-78
2023/04/05 10:26:27;;;;;;;6.07;0.65;;;;;;;;;;5036049;28;20537;-78
2023/04/05 10:28:59;;;;;;;2.00;0.60;;;;;;;;;;5035193;28;20033;-78
2023/04/05 10:31:25;;;;;;;;;;;;;;;;;;5037706;28;20033;-80
2023/04/05 10:33:55;;;;;;;2.47;0.50;;;;;;;;;;5041094;28;20361;-78
2023/04/05 10:36:45;;;;;;;4.63;1.00;;;;;;;;;;5039413;28;20043;-78
2023/04/05 10:39:12;;;;;;;3.50;0.70;;;;;;;;;;5039314;28;20147;-78
2023/04/05 10:42:02;;;;;;;5.32;1.60;;;;;;;;;;5036106;28;20041;-78
2023/04/05 10:44:32;;;;;;;5.13;0.98;;;;;;;;;;5016878;28;20135;-78
2023/04/05 10:46:59;;;;;;;2.05;0.47;;;;;;;;;;5042942;28;20075;-79
2023/04/05 10:49:39;;;;;;;2.78;0.57;;;;;;;;;;5040364;28;20031;-78
2023/04/05 10:52:06;;;;;;;2.63;0.50;;;;;;;;;;5038074;28;20028;-78
2023/04/05 10:54:37;;;;;;;1.90;0.50;;;;;;;;;;5040361;28;20044;-78
2023/04/05 10:57:05;;;;;;;2.30;0.50;;;;;;;;;;5039225;28;20039;-79
2023/04/05 10:59:32;;;;;;;1.75;0.43;;;;;;;;;;5040186;28;20025;-78
2023/04/05 11:01:59;;;;;;;1.63;0.40;;;;;;;;;;5045409;28;20025;-79
2023/04/05 11:04:25;;;;;;;2.97;0.63;;;;;;;;;;5039144;28;20048;-80
2023/04/05 11:07:10;;;;;;;2.85;0.40;;;;;;;;;;5041331;28;20542;-79
2023/04/05 11:09:37;;;;;;;3.47;0.98;;;;;;;;;;5035284;28;20024;-78
2023/04/05 11:12:04;;;;;;;2.88;0.52;;;;;;;;;;5041847;28;20139;-77
2023/04/05 11:14:40;;;;;;;1.55;0.45;;;;;;;;;;5034408;28;20447;-78
2023/04/05 11:17:26;;;;;;;3.33;0.70;;;;;;;;;;5037437;28;20064;-78
2023/04/05 11:19:57;;;;;;;2.90;0.50;;;;;;;;;;5031906;28;20035;-75
2023/04/05 11:22:25;;;;;;;2.17;0.60;;;;;;;;;;5032448;28;20033;-75
2023/04/05 11:24:52;;;;;;;4.43;0.73;;;;;;;;;;5038101;28;20014;-75
2023/04/05 11:27:51;;;;;;;3.92;0.73;;;;;;;;;;5041778;28;20029;-84
2023/04/05 11:30:37;;;;;;;2.13;0.68;;;;;;;;;;5017228;28;20642;-78
2023/04/05 11:33:07;;;;;;;4.00;1.00;;;;;;;;;;5038646;28;20079;-77
2023/04/05 11:35:34;;;;;;;3.85;0.55;;;;;;;;;;5036998;28;20017;-77
2023/04/05 11:38:00;;;;;;;3.10;0.60;;;;;;;;;;5038558;28;20096;-78
2023/04/05 11:40:39;;;;;;;2.88;0.80;;;;;;;;;;5031988;28;20075;-77
2023/04/05 11:43:07;;;;;;;2.38;0.52;;;;;;;;;;5036668;28;20073;-77
2023/04/05 11:45:34;;;;;;;2.92;0.70;;;;;;;;;;5043463;28;20128;-76
2023/04/05 11:48:01;;;;;;;1.70;0.50;;;;;;;;;;5043075;28;20068;-77
2023/04/05 11:50:28;;;;;;;1.50;0.60;;;;;;;;;;5041911;28;20028;-76
2023/04/05 11:53:09;;;;;;;0.77;0.52;;;;;;;;;;5042708;28;20052;-77
2023/04/05 11:55:36;;;;;;;4.30;0.90;;;;;;;;;;5036600;28;20028;-78
2023/04/05 11:58:02;;;;;;;4.85;0.70;;;;;;;;;;5047489;28;20032;-79
2023/04/05 12:00:29;;;;;;;2.25;0.50;;;;;;;;;;5043112;28;20032;-78
2023/04/05 12:02:58;;;;;;;1.58;0.47;;;;;;;;;;5046021;28;20114;-78
2023/04/05 12:05:24;;;;;;;2.30;0.57;;;;;;;;;;5045679;28;20032;-77
2023/04/05 12:07:53;;;;;;;2.25;0.70;;;;;;;;;;5045458;28;20481;-77
2023/04/05 12:10:20;;;;;;;1.02;0.55;;;;;;;;;;5046141;28;20648;-78
2023/04/05 12:12:58;;;;;;;;;;;;;;;;;;;;;
2023/04/05 12:15:25;;;;;;;2.22;0.52;;;;;;;;;;5039625;28;20031;-78
2023/04/05 12:17:53;;;;;;;2.05;0.60;;;;;;;;;;5039469;28;20491;-78
2023/04/05 12:20:20;;;;;;;9.57;1.10;;;;;;;;;;5043797;28;20028;-79
2023/04/05 12:22:47;;;;;;;3.90;1.08;;;;;;;;;;5043075;28;20689;-78
2023/04/05 12:25:16;;;;;;;2.85;0.60;;;;;;;;;;5042333;28;20442;-80
2023/04/05 12:27:43;;;;;;;3.47;0.70;;;;;;;;;;5042568;28;20068;-78
2023/04/05 12:30:09;;;;;;;4.43;0.70;;;;;;;;;;5057850;28;20021;-79
2023/04/05 12:32:56;;;;;;;4.88;0.65;;;;;;;;;;5045108;28;20025;-79
2023/04/05 12:35:23;;;;;;;2.55;0.50;;;;;;;;;;5044507;28;20052;-78
2023/04/05 12:37:50;;;;;;;4.93;0.60;;;;;;;;;;5043982;28;20028;-78
2023/04/05 13:01:35;;;;;;;2.60;1.13;;;;;;;;;;5083716;27;20118;-77
2023/04/05 13:04:03;;;;;;;3.40;1.48;;;;;;;;;;5085840;28;20408;-77
2023/04/05 13:06:32;;;;;;;3.67;1.80;;;;;;;;;;5079568;28;20373;-77
2023/04/05 13:08:59;;;;;;;4.45;1.45;;;;;;;;;;5067539;28;20032;-77
2023/04/05 13:11:25;;;;;;;5.60;1.60;;;;;;;;;;5067419;28;20051;-78
2023/04/05 14:01:26;;;;;;;3.78;1.40;;;;;;;;;;5125079;27;20441;-78
2023/04/05 14:03:52;;;;;;;5.72;1.50;;;;;;;;;;5107022;28;20517;-79
2023/04/05 14:06:18;;;;;;;6.53;1.52;;;;;;;;;;5109456;28;20052;-77
2023/04/05 14:08:44;;;;;;;5.75;2.75;;;;;;;;;;5109188;28;20025;-78
2023/04/05 14:42:14;;;;;;;5.93;2.05;;;;;;;;;;4789589;28;20067;-94
2023/04/05 14:44:41;;;;;;;8.00;1.92;;;;;;;;;;5041733;28;20030;-94
2023/04/05 14:47:09;;;;;;;2.88;1.92;;;;;;;;;;5041196;28;20065;-92
2023/04/05 14:49:36;;;;;;;3.60;2.08;;;;;;;;;;5035008;28;20025;-92
2023/04/05 14:52:02;;;;;;;7.00;1.98;;;;;;;;;;5044791;28;20068;-93
2023/04/05 14:54:28;;;;;;;7.80;3.08;;;;;;;;;;5044965;28;20025;-94
2023/04/05 14:56:54;;;;;;;7.03;2.00;;;;;;;;;;5042019;28;20076;-92
2023/04/05 14:59:24;;;;;;;3.33;1.85;;;;;;;;;;5041516;28;20037;-93
2023/04/05 15:01:50;;;;;;;5.63;1.90;;;;;;;;;;5027188;28;20476;-94
2023/04/05 15:04:16;;;;;;;7.82;2.08;;;;;;;;;;5027204;28;20029;-93
2023/04/05 15:06:43;;;;;;;8.35;2.53;;;;;;;;;;5027528;28;20025;-93
2023/04/05 15:09:09;;;;;;;6.45;2.13;;;;;;;;;;5026681;28;20053;-94
2023/04/05 15:11:39;;;;;;;8.80;2.08;;;;;;;;;;5032709;28;20041;-95
2023/04/05 15:14:05;;;;;;;8.20;2.05;;;;;;;;;;5030670;28;20124;-94
2023/04/05 15:16:31;;;;;;;7.53;2.30;;;;;;;;;;5035793;28;20044;-92
2023/04/05 15:18:58;;;;;;;5.30;2.00;;;;;;;;;;5030960;28;20133;-94
2023/04/05 15:21:24;;;;;;;4.10;2.30;;;;;;;;;;5031811;28;20079;-95
2023/04/05 15:23:50;;;;;;;5.43;2.30;;;;;;;;;;5031867;28;20056;-93
2023/04/05 15:26:17;;;;;;;3.95;1.98;;;;;;;;;;5028271;28;20037;-93
2023/04/05 15:28:43;;;;;;;5.03;2.28;;;;;;;;;;5032363;28;20017;-92
2023/04/05 15:31:09;;;;;;;6.78;2.58;;;;;;;;;;5022582;28;20029;-96
2023/04/05 15:33:36;;;;;;;3.63;1.90;;;;;;;;;;5028969;28;20020;-93
2023/04/05 15:36:02;;;;;;;3.70;2.00;;;;;;;;;;5025818;28;20037;-93
2023/04/05 15:38:28;;;;;;;5.20;2.03;;;;;;;;;;5031400;28;20475;-94
2023/04/05 15:40:56;;;;;;;4.78;2.28;;;;;;;;;;5025369;28;20181;-96
2023/04/05 15:43:23;;;;;;;7.00;2.00;;;;;;;;;;5026488;28;20132;-95
2023/04/05 15:45:49;;;;;;;6.05;1.83;;;;;;;;;;5029810;28;20033;-94
2023/04/05 15:48:16;;;;;;;7.53;2.28;;;;;;;;;;5031708;28;20021;-93
2023/04/05 15:50:42;;;;;;;5.60;1.80;;;;;;;;;;5033523;28;20104;-95
2023/04/05 15:53:08;;;;;;;6.45;1.98;;;;;;;;;;5026272;28;20048;-93
2023/04/05 15:55:35;;;;;;;5.88;1.90;;;;;;;;;;5028023;28;20029;-92
2023/04/05 15:58:01;;;;;;;4.05;1.90;;;;;;;;;;5021183;28;20021;-95
2023/04/05 16:00:27;;;;;;;3.90;2.10;;;;;;;;;;5025201;28;20033;-92
2023/04/05 16:02:57;;;;;;;6.55;1.83;;;;;;;;;;5026613;28;20022;-90
2023/04/05 16:05:24;;;;;;;3.42;1.83;;;;;;;;;;5016686;28;20033;-92
2023/04/05 16:07:50;;;;;;;4.10;1.80;;;;;;;;;;5027053;28;20028;-91
2023/04/05 16:10:16;;;;;;;4.22;1.95;;;;;;;;;;5032803;28;20029;-91
2023/04/05 16:12:42;;;;;;;7.00;2.13;;;;;;;;;;5025542;28;20095;-90
2023/04/05 16:15:09;;;;;;;6.50;2.20;;;;;;;;;;5024305;28;20032;-90
2023/04/05 16:17:36;;;;;;;6.65;2.10;;;;;;;;;;5026938;28;20025;-93
2023/04/05 16:20:02;;;;;;;6.65;2.28;;;;;;;;;;5029373;28;20041;-92
2023/04/05 16:22:29;;;;;;;2.65;1.73;;;;;;;;;;5026495;28;20334;-92
2023/04/05 16:24:55;;;;;;;6.78;2.20;;;;;;;;;;5030850;28;20029;-91
2023/04/05 16:27:22;;;;;;;4.35;2.13;;;;;;;;;;5027236;28;20021;-92
2023/04/05 16:29:48;;;;;;;4.70;2.22;;;;;;;;;;5031503;28;20060;-92